createdAt,value
2022-12-22T00:00:15.442Z,951.26
2022-12-22T00:01:15.425Z,951.16
2022-12-22T00:02:15.673Z,951.24
2022-12-22T00:03:15.662Z,951.20
2022-12-22T00:04:15.682Z,951.20
2022-12-22T00:05:15.398Z,951.24
2022-12-22T00:06:15.349Z,951.22
2022-12-22T00:07:15.367Z,951.20
2022-12-22T00:08:15.328Z,951.14
2022-12-22T00:09:15.312Z,951.14
2022-12-22T00:10:15.293Z,951.19
2022-12-22T00:11:15.313Z,951.20
2022-12-22T00:12:15.262Z,951.19
2022-12-22T00:13:15.279Z,951.16
2022-12-22T00:14:15.237Z,951.09
2022-12-22T00:15:15.239Z,951.08
2022-12-22T00:16:15.568Z,951.10
2022-12-22T00:17:15.262Z,951.14
2022-12-22T00:18:15.196Z,951.06
2022-12-22T00:19:15.229Z,951.05
2022-12-22T00:20:18.652Z,951.02
2022-12-22T00:21:15.162Z,951.01
2022-12-22T00:22:15.131Z,950.99
2022-12-22T00:23:15.163Z,951.02
2022-12-22T00:24:15.121Z,950.96
2022-12-22T00:25:15.102Z,950.95
2022-12-22T00:26:15.098Z,950.90
2022-12-22T00:27:15.117Z,950.92
2022-12-22T00:28:15.064Z,950.88
2022-12-22T00:29:15.064Z,950.87
2022-12-22T00:30:15.029Z,950.90
2022-12-22T00:31:15.084Z,950.91
2022-12-22T00:32:15.032Z,950.90
2022-12-22T00:33:15.005Z,950.92
2022-12-22T00:34:14.989Z,950.90
2022-12-22T00:35:14.976Z,950.90
2022-12-22T00:36:14.950Z,950.90
2022-12-22T00:37:14.980Z,950.84
2022-12-22T00:38:14.929Z,950.84
2022-12-22T00:39:14.951Z,950.80
2022-12-22T00:40:14.893Z,950.81
2022-12-22T00:41:14.943Z,950.76
2022-12-22T00:42:14.877Z,950.82
2022-12-22T00:43:14.868Z,950.77
2022-12-22T00:44:14.879Z,950.75
2022-12-22T00:45:14.842Z,950.78
2022-12-22T00:46:15.340Z,950.81
2022-12-22T00:47:14.825Z,950.80
2022-12-22T00:48:14.851Z,950.87
2022-12-22T00:49:14.787Z,950.87
2022-12-22T00:50:14.779Z,950.85
2022-12-22T00:51:14.771Z,950.82
2022-12-22T00:52:14.739Z,950.76
2022-12-22T00:53:14.739Z,950.83
2022-12-22T00:54:14.722Z,950.82
2022-12-22T00:55:14.742Z,950.80
2022-12-22T00:56:14.705Z,950.79
2022-12-22T00:57:14.718Z,950.81
2022-12-22T00:58:14.697Z,950.80
2022-12-22T00:59:14.660Z,950.78
2022-12-22T01:00:14.675Z,950.84
2022-12-22T01:01:14.989Z,950.82
2022-12-22T01:02:14.934Z,950.82
2022-12-22T01:03:14.751Z,950.81
2022-12-22T01:04:14.609Z,950.82
2022-12-22T01:05:14.573Z,950.82
2022-12-22T01:06:14.572Z,950.84
2022-12-22T01:07:14.581Z,950.80
2022-12-22T01:08:14.579Z,950.84
2022-12-22T01:09:14.536Z,950.78
2022-12-22T01:10:14.501Z,950.79
2022-12-22T01:11:14.906Z,950.76
2022-12-22T01:12:14.498Z,950.82
2022-12-22T01:13:14.517Z,950.82
2022-12-22T01:14:14.452Z,950.83
2022-12-22T01:15:14.463Z,950.85
2022-12-22T01:16:14.526Z,950.85
2022-12-22T01:17:14.429Z,950.85
2022-12-22T01:18:14.421Z,950.84
2022-12-22T01:19:14.402Z,950.81
2022-12-22T01:20:14.385Z,950.81
2022-12-22T01:21:14.382Z,950.79
2022-12-22T01:22:14.342Z,950.77
2022-12-22T01:23:14.383Z,950.76
2022-12-22T01:24:14.379Z,950.76
2022-12-22T01:25:14.331Z,950.78
2022-12-22T01:26:14.293Z,950.72
2022-12-22T01:27:14.299Z,950.75
2022-12-22T01:28:14.268Z,950.73
2022-12-22T01:29:14.386Z,950.74
2022-12-22T01:30:14.248Z,950.70
2022-12-22T01:31:14.325Z,950.69
2022-12-22T01:32:14.239Z,950.70
2022-12-22T01:33:14.215Z,950.69
2022-12-22T01:34:14.198Z,950.69
2022-12-22T01:35:14.197Z,950.71
2022-12-22T01:36:14.170Z,950.77
2022-12-22T01:37:14.193Z,950.80
2022-12-22T01:38:14.157Z,950.83
2022-12-22T01:39:14.140Z,950.80
2022-12-22T01:40:14.157Z,950.82
2022-12-22T01:41:14.150Z,950.82
2022-12-22T01:42:14.091Z,950.80
2022-12-22T01:43:14.083Z,950.79
2022-12-22T01:44:14.066Z,950.81
2022-12-22T01:45:14.059Z,950.83
2022-12-22T01:46:14.153Z,950.80
2022-12-22T01:47:14.038Z,950.77
2022-12-22T01:48:14.012Z,950.75
2022-12-22T01:49:14.024Z,950.77
2022-12-22T01:50:14.014Z,950.71
2022-12-22T01:51:14.016Z,950.69
2022-12-22T01:52:13.970Z,950.67
2022-12-22T01:53:19.673Z,950.70
2022-12-22T01:54:13.933Z,950.68
2022-12-22T01:55:13.960Z,950.68
2022-12-22T01:56:13.904Z,950.67
2022-12-22T01:57:13.939Z,950.61
2022-12-22T01:58:13.897Z,950.63
2022-12-22T01:59:13.975Z,950.61
2022-12-22T02:00:13.963Z,950.59
2022-12-22T02:01:13.894Z,950.59
2022-12-22T02:02:13.932Z,950.61
2022-12-22T02:03:13.940Z,950.60
2022-12-22T02:04:13.800Z,950.56
2022-12-22T02:05:13.790Z,950.58
2022-12-22T02:06:13.768Z,950.57
2022-12-22T02:07:13.787Z,950.57
2022-12-22T02:08:13.745Z,950.54
2022-12-22T02:09:13.761Z,950.53
2022-12-22T02:10:13.723Z,950.48
2022-12-22T02:11:13.726Z,950.45
2022-12-22T02:12:13.732Z,950.56
2022-12-22T02:13:13.682Z,950.51
2022-12-22T02:14:13.668Z,950.50
2022-12-22T02:15:13.683Z,950.50
2022-12-22T02:16:13.690Z,950.51
2022-12-22T02:17:13.639Z,950.54
2022-12-22T02:18:13.620Z,950.52
2022-12-22T02:19:13.646Z,950.49
2022-12-22T02:20:13.598Z,950.55
2022-12-22T02:21:13.578Z,950.46
2022-12-22T02:22:13.571Z,950.43
2022-12-22T02:23:13.553Z,950.52
2022-12-22T02:24:13.578Z,950.50
2022-12-22T02:25:13.519Z,950.43
2022-12-22T02:26:13.541Z,950.44
2022-12-22T02:27:13.498Z,950.44
2022-12-22T02:28:13.489Z,950.43
2022-12-22T02:29:13.488Z,950.34
2022-12-22T02:30:13.555Z,950.39
2022-12-22T02:31:13.557Z,950.34
2022-12-22T02:32:13.443Z,950.39
2022-12-22T02:33:13.411Z,950.34
2022-12-22T02:34:13.448Z,950.39
2022-12-22T02:35:13.411Z,950.38
2022-12-22T02:36:13.392Z,950.33
2022-12-22T02:37:13.373Z,950.28
2022-12-22T02:38:13.354Z,950.32
2022-12-22T02:39:13.344Z,950.27
2022-12-22T02:40:13.363Z,950.29
2022-12-22T02:41:13.314Z,950.33
2022-12-22T02:42:13.307Z,950.29
2022-12-22T02:43:13.284Z,950.32
2022-12-22T02:44:13.285Z,950.32
2022-12-22T02:45:13.284Z,950.26
2022-12-22T02:46:13.272Z,950.29
2022-12-22T02:47:13.235Z,950.29
2022-12-22T02:48:13.252Z,950.27
2022-12-22T02:49:13.212Z,950.23
2022-12-22T02:50:13.222Z,950.26
2022-12-22T02:51:13.208Z,950.25
2022-12-22T02:52:13.175Z,950.27
2022-12-22T02:53:13.179Z,950.23
2022-12-22T02:54:13.171Z,950.23
2022-12-22T02:55:13.133Z,950.20
2022-12-22T02:56:13.140Z,950.19
2022-12-22T02:57:13.096Z,950.21
2022-12-22T02:58:13.109Z,950.16
2022-12-22T02:59:13.076Z,950.19
2022-12-22T03:00:13.102Z,950.16
2022-12-22T03:01:13.066Z,950.20
2022-12-22T03:02:13.216Z,950.17
2022-12-22T03:03:13.147Z,950.18
2022-12-22T03:04:13.051Z,950.19
2022-12-22T03:05:13.000Z,950.19
2022-12-22T03:06:12.993Z,950.19
2022-12-22T03:07:12.964Z,950.20
2022-12-22T03:08:12.985Z,950.21
2022-12-22T03:09:12.938Z,950.18
2022-12-22T03:10:12.945Z,950.17
2022-12-22T03:11:12.958Z,950.14
2022-12-22T03:12:12.937Z,950.13
2022-12-22T03:13:12.925Z,950.14
2022-12-22T03:14:12.925Z,950.12
2022-12-22T03:15:12.861Z,950.18
2022-12-22T03:16:12.994Z,950.11
2022-12-22T03:17:12.886Z,950.07
2022-12-22T03:18:12.851Z,950.08
2022-12-22T03:19:12.818Z,950.10
2022-12-22T03:20:12.835Z,950.11
2022-12-22T03:21:12.821Z,950.11
2022-12-22T03:22:12.793Z,950.12
2022-12-22T03:23:12.810Z,950.09
2022-12-22T03:24:12.749Z,950.06
2022-12-22T03:25:12.753Z,950.07
2022-12-22T03:26:12.729Z,950.06
2022-12-22T03:27:12.738Z,950.05
2022-12-22T03:28:12.703Z,950.06
2022-12-22T03:29:12.680Z,950.05
2022-12-22T03:30:12.692Z,950.07
2022-12-22T03:31:12.729Z,950.04
2022-12-22T03:32:12.642Z,949.97
2022-12-22T03:33:12.663Z,949.98
2022-12-22T03:34:12.629Z,950.02
2022-12-22T03:35:12.624Z,950.06
2022-12-22T03:36:12.598Z,950.06
2022-12-22T03:37:12.597Z,950.05
2022-12-22T03:38:12.601Z,950.04
2022-12-22T03:39:12.560Z,950.00
2022-12-22T03:40:12.566Z,949.91
2022-12-22T03:41:12.524Z,949.93
2022-12-22T03:42:12.535Z,949.91
2022-12-22T03:43:12.535Z,949.91
2022-12-22T03:44:12.516Z,949.93
2022-12-22T03:45:12.466Z,949.89
2022-12-22T03:46:12.462Z,949.93
2022-12-22T03:47:12.543Z,949.94
2022-12-22T03:48:12.470Z,949.94
2022-12-22T03:49:12.646Z,949.94
2022-12-22T03:50:12.420Z,949.96
2022-12-22T03:51:12.391Z,949.93
2022-12-22T03:52:12.393Z,949.92
2022-12-22T03:53:12.399Z,949.95
2022-12-22T03:54:12.382Z,949.98
2022-12-22T03:55:12.356Z,949.96
2022-12-22T03:56:12.336Z,949.95
2022-12-22T03:57:12.338Z,949.93
2022-12-22T03:58:12.323Z,949.94
2022-12-22T03:59:12.293Z,949.95
2022-12-22T04:00:12.310Z,949.90
2022-12-22T04:01:12.322Z,949.92
2022-12-22T04:02:12.349Z,949.91
2022-12-22T04:03:12.442Z,949.88
2022-12-22T04:04:12.258Z,949.90
2022-12-22T04:05:12.200Z,949.93
2022-12-22T04:06:12.198Z,949.94
2022-12-22T04:07:12.185Z,949.97
2022-12-22T04:08:12.170Z,949.91
2022-12-22T04:09:12.181Z,949.97
2022-12-22T04:10:12.152Z,950.02
2022-12-22T04:11:12.122Z,950.04
2022-12-22T04:12:12.133Z,950.03
2022-12-22T04:13:12.098Z,950.08
2022-12-22T04:14:12.101Z,950.09
2022-12-22T04:15:12.112Z,950.07
2022-12-22T04:16:12.116Z,950.11
2022-12-22T04:17:12.056Z,950.01
2022-12-22T04:18:12.235Z,950.01
2022-12-22T04:19:12.052Z,949.96
2022-12-22T04:20:12.024Z,949.98
2022-12-22T04:21:11.994Z,950.03
2022-12-22T04:22:11.998Z,950.03
2022-12-22T04:23:11.999Z,950.06
2022-12-22T04:24:11.982Z,950.02
2022-12-22T04:25:11.946Z,950.10
2022-12-22T04:26:11.956Z,950.08
2022-12-22T04:27:11.934Z,950.06
2022-12-22T04:28:11.903Z,950.04
2022-12-22T04:29:11.919Z,950.01
2022-12-22T04:30:11.918Z,950.10
2022-12-22T04:31:11.865Z,950.09
2022-12-22T04:32:11.899Z,950.08
2022-12-22T04:33:11.865Z,950.13
2022-12-22T04:34:11.845Z,950.14
2022-12-22T04:35:11.931Z,950.15
2022-12-22T04:36:11.841Z,950.13
2022-12-22T04:37:17.276Z,950.10
2022-12-22T04:38:11.796Z,950.07
2022-12-22T04:39:11.785Z,950.11
2022-12-22T04:40:11.772Z,950.06
2022-12-22T04:41:11.754Z,950.06
2022-12-22T04:42:11.754Z,949.98
2022-12-22T04:43:11.731Z,950.00
2022-12-22T04:44:11.748Z,949.96
2022-12-22T04:45:11.684Z,949.91
2022-12-22T04:46:11.754Z,949.90
2022-12-22T04:47:11.662Z,949.86
2022-12-22T04:48:11.670Z,949.86
2022-12-22T04:49:11.630Z,949.89
2022-12-22T04:50:11.618Z,949.82
2022-12-22T04:51:11.656Z,949.89
2022-12-22T04:52:11.627Z,949.89
2022-12-22T04:53:11.575Z,949.89
2022-12-22T04:54:11.568Z,949.92
2022-12-22T04:55:11.550Z,949.92
2022-12-22T04:56:11.576Z,949.94
2022-12-22T04:57:11.516Z,949.92
2022-12-22T04:58:11.547Z,949.95
2022-12-22T04:59:11.539Z,949.95
2022-12-22T05:00:11.511Z,950.01
2022-12-22T05:01:11.491Z,950.00
2022-12-22T05:02:11.617Z,950.04
2022-12-22T05:03:11.565Z,950.02
2022-12-22T05:04:11.433Z,950.04
2022-12-22T05:05:11.438Z,950.02
2022-12-22T05:06:11.455Z,950.03
2022-12-22T05:07:11.387Z,950.04
2022-12-22T05:08:11.380Z,950.02
2022-12-22T05:09:11.393Z,950.01
2022-12-22T05:10:11.375Z,950.04
2022-12-22T05:11:11.356Z,950.02
2022-12-22T05:12:11.329Z,950.02
2022-12-22T05:13:11.304Z,950.01
2022-12-22T05:14:11.313Z,950.02
2022-12-22T05:15:11.307Z,949.97
2022-12-22T05:16:11.370Z,949.95
2022-12-22T05:17:11.355Z,949.91
2022-12-22T05:18:11.279Z,949.84
2022-12-22T05:19:11.233Z,949.86
2022-12-22T05:20:11.238Z,949.80
2022-12-22T05:21:11.265Z,949.76
2022-12-22T05:22:11.200Z,949.73
2022-12-22T05:23:11.175Z,949.66
2022-12-22T05:24:11.170Z,949.67
2022-12-22T05:25:11.147Z,949.60
2022-12-22T05:26:11.147Z,949.66
2022-12-22T05:27:11.162Z,949.60
2022-12-22T05:28:11.133Z,949.56
2022-12-22T05:29:11.108Z,949.55
2022-12-22T05:30:11.098Z,949.49
2022-12-22T05:31:11.211Z,949.47
2022-12-22T05:32:11.068Z,949.47
2022-12-22T05:33:11.087Z,949.47
2022-12-22T05:34:11.042Z,949.45
2022-12-22T05:35:11.018Z,949.45
2022-12-22T05:36:11.128Z,949.42
2022-12-22T05:37:11.002Z,949.38
2022-12-22T05:38:11.024Z,949.44
2022-12-22T05:39:10.968Z,949.46
2022-12-22T05:40:10.966Z,949.44
2022-12-22T05:41:10.951Z,949.45
2022-12-22T05:42:10.939Z,949.50
2022-12-22T05:43:10.951Z,949.51
2022-12-22T05:44:10.907Z,949.54
2022-12-22T05:45:10.886Z,949.51
2022-12-22T05:46:10.986Z,949.48
2022-12-22T05:47:10.867Z,949.46
2022-12-22T05:48:10.936Z,949.41
2022-12-22T05:49:10.840Z,949.42
2022-12-22T05:50:10.847Z,949.41
2022-12-22T05:51:10.815Z,949.40
2022-12-22T05:52:10.836Z,949.43
2022-12-22T05:53:10.801Z,949.45
2022-12-22T05:54:10.803Z,949.48
2022-12-22T05:55:10.794Z,949.48
2022-12-22T05:56:10.747Z,949.50
2022-12-22T05:57:10.755Z,949.49
2022-12-22T05:58:10.726Z,949.48
2022-12-22T05:59:10.698Z,949.53
2022-12-22T06:00:10.757Z,949.52
2022-12-22T06:01:10.697Z,949.53
2022-12-22T06:02:10.759Z,949.53
2022-12-22T06:03:10.794Z,949.56
2022-12-22T06:04:10.953Z,949.60
2022-12-22T06:05:10.651Z,949.56
2022-12-22T06:06:10.630Z,949.56
2022-12-22T06:07:10.603Z,949.56
2022-12-22T06:08:10.596Z,949.59
2022-12-22T06:09:10.626Z,949.55
2022-12-22T06:10:12.753Z,949.60
2022-12-22T06:11:10.574Z,949.62
2022-12-22T06:12:10.533Z,949.59
2022-12-22T06:13:10.525Z,949.62
2022-12-22T06:14:10.551Z,949.59
2022-12-22T06:15:10.501Z,949.65
2022-12-22T06:16:10.565Z,949.63
2022-12-22T06:17:10.458Z,949.63
2022-12-22T06:18:10.467Z,949.63
2022-12-22T06:19:10.437Z,949.57
2022-12-22T06:20:10.438Z,949.53
2022-12-22T06:21:10.450Z,949.56
2022-12-22T06:22:10.435Z,949.60
2022-12-22T06:23:10.406Z,949.64
2022-12-22T06:24:10.390Z,949.69
2022-12-22T06:25:17.214Z,949.67
2022-12-22T06:26:10.352Z,949.64
2022-12-22T06:27:10.376Z,949.60
2022-12-22T06:28:10.337Z,949.56
2022-12-22T06:29:10.327Z,949.58
2022-12-22T06:30:10.336Z,949.61
2022-12-22T06:31:10.317Z,949.69
2022-12-22T06:32:10.295Z,949.75
2022-12-22T06:33:10.259Z,949.71
2022-12-22T06:34:10.270Z,949.75
2022-12-22T06:35:10.311Z,949.74
2022-12-22T06:36:10.219Z,949.77
2022-12-22T06:37:10.222Z,949.75
2022-12-22T06:38:10.192Z,949.73
2022-12-22T06:39:10.198Z,949.73
2022-12-22T06:40:10.174Z,949.75
2022-12-22T06:41:10.187Z,949.69
2022-12-22T06:42:10.154Z,949.67
2022-12-22T06:43:10.762Z,949.63
2022-12-22T06:44:10.111Z,949.64
2022-12-22T06:45:10.119Z,949.56
2022-12-22T06:46:10.150Z,949.53
2022-12-22T06:47:10.086Z,949.57
2022-12-22T06:48:10.100Z,949.60
2022-12-22T06:49:10.049Z,949.60
2022-12-22T06:50:10.034Z,949.66
2022-12-22T06:51:10.032Z,949.71
2022-12-22T06:52:10.035Z,949.74
2022-12-22T06:53:10.017Z,949.73
2022-12-22T06:54:09.979Z,949.76
2022-12-22T06:55:09.997Z,949.74
2022-12-22T06:56:09.951Z,949.79
2022-12-22T06:57:09.972Z,949.83
2022-12-22T06:58:09.927Z,949.85
2022-12-22T06:59:09.946Z,949.84
2022-12-22T07:00:09.900Z,949.80
2022-12-22T07:01:09.921Z,949.82
2022-12-22T07:02:10.042Z,949.82
2022-12-22T07:03:10.098Z,949.95
2022-12-22T07:04:09.943Z,949.94
2022-12-22T07:05:09.861Z,950.02
2022-12-22T07:06:09.817Z,950.06
2022-12-22T07:07:09.859Z,950.08
2022-12-22T07:08:09.786Z,950.05
2022-12-22T07:09:09.802Z,950.08
2022-12-22T07:10:09.765Z,950.03
2022-12-22T07:11:09.833Z,949.94
2022-12-22T07:12:09.777Z,949.85
2022-12-22T07:13:09.762Z,949.82
2022-12-22T07:14:09.721Z,949.84
2022-12-22T07:15:09.720Z,949.86
2022-12-22T07:16:09.777Z,949.95
2022-12-22T07:17:09.692Z,950.03
2022-12-22T07:18:09.665Z,950.04
2022-12-22T07:19:09.668Z,950.07
2022-12-22T07:20:09.678Z,950.11
2022-12-22T07:21:09.646Z,950.12
2022-12-22T07:22:09.617Z,950.07
2022-12-22T07:23:09.607Z,950.07
2022-12-22T07:24:09.604Z,949.97
2022-12-22T07:25:09.603Z,949.95
2022-12-22T07:26:09.552Z,949.94
2022-12-22T07:27:09.548Z,949.90
2022-12-22T07:28:12.454Z,949.95
2022-12-22T07:29:09.564Z,949.95
2022-12-22T07:30:09.536Z,950.00
2022-12-22T07:31:09.512Z,950.10
2022-12-22T07:32:09.547Z,950.07
2022-12-22T07:33:09.547Z,950.06
2022-12-22T07:34:09.480Z,950.05
2022-12-22T07:35:09.505Z,950.03
2022-12-22T07:36:09.440Z,950.03
2022-12-22T07:37:09.434Z,950.03
2022-12-22T07:38:09.414Z,950.00
2022-12-22T07:39:09.403Z,949.97
2022-12-22T07:40:09.408Z,949.95
2022-12-22T07:41:09.371Z,949.96
2022-12-22T07:42:09.348Z,949.97
2022-12-22T07:43:09.354Z,949.95
2022-12-22T07:44:09.372Z,949.91
2022-12-22T07:45:09.328Z,949.94
2022-12-22T07:46:09.327Z,949.94
2022-12-22T07:47:09.293Z,949.90
2022-12-22T07:48:09.269Z,949.89
2022-12-22T07:49:09.317Z,949.89
2022-12-22T07:50:09.238Z,949.80
2022-12-22T07:51:09.238Z,949.80
2022-12-22T07:52:09.221Z,949.76
2022-12-22T07:53:09.213Z,949.78
2022-12-22T07:54:09.236Z,949.74
2022-12-22T07:55:09.231Z,949.74
2022-12-22T07:56:09.165Z,949.76
2022-12-22T07:57:09.166Z,949.71
2022-12-22T07:58:09.132Z,949.72
2022-12-22T07:59:09.129Z,949.73
2022-12-22T08:00:09.275Z,949.70
2022-12-22T08:01:09.110Z,949.72
2022-12-22T08:02:09.295Z,949.70
2022-12-22T08:03:09.254Z,949.64
2022-12-22T08:04:09.125Z,949.62
2022-12-22T08:05:09.140Z,949.61
2022-12-22T08:06:09.047Z,949.62
2022-12-22T08:07:09.031Z,949.56
2022-12-22T08:08:09.011Z,949.52
2022-12-22T08:09:09.010Z,949.52
2022-12-22T08:10:09.036Z,949.47
2022-12-22T08:11:08.975Z,949.45
2022-12-22T08:12:08.967Z,949.45
2022-12-22T08:13:09.036Z,949.44
2022-12-22T08:14:08.926Z,949.49
2022-12-22T08:15:08.959Z,949.41
2022-12-22T08:16:08.956Z,949.39
2022-12-22T08:17:08.893Z,949.42
2022-12-22T08:18:08.877Z,949.36
2022-12-22T08:19:08.897Z,949.29
2022-12-22T08:20:08.912Z,949.34
2022-12-22T08:21:08.857Z,949.31
2022-12-22T08:22:08.858Z,949.30
2022-12-22T08:23:08.812Z,949.24
2022-12-22T08:24:08.801Z,949.26
2022-12-22T08:25:08.819Z,949.22
2022-12-22T08:26:08.766Z,949.18
2022-12-22T08:27:08.786Z,949.14
2022-12-22T08:28:24.000Z,949.18
2022-12-22T08:29:08.730Z,949.15
2022-12-22T08:30:08.736Z,949.14
2022-12-22T08:31:08.751Z,949.17
2022-12-22T08:32:08.768Z,949.15
2022-12-22T08:33:08.679Z,949.11
2022-12-22T08:34:08.668Z,949.11
2022-12-22T08:35:08.703Z,949.13
2022-12-22T08:36:08.721Z,949.14
2022-12-22T08:37:08.630Z,949.13
2022-12-22T08:38:08.619Z,949.17
2022-12-22T08:39:08.607Z,949.17
2022-12-22T08:40:08.611Z,949.18
2022-12-22T08:41:08.601Z,949.13
2022-12-22T08:42:08.555Z,949.16
2022-12-22T08:43:08.567Z,949.18
2022-12-22T08:44:08.572Z,949.15
2022-12-22T08:45:08.521Z,949.06
2022-12-22T08:46:08.528Z,949.04
2022-12-22T08:47:14.833Z,949.06
2022-12-22T08:48:08.484Z,949.06
2022-12-22T08:49:08.472Z,949.02
2022-12-22T08:50:08.465Z,949.07
2022-12-22T08:51:08.446Z,949.02
2022-12-22T08:52:11.627Z,948.98
2022-12-22T08:53:23.452Z,948.98
2022-12-22T08:54:08.453Z,948.99
2022-12-22T08:55:08.445Z,948.96
2022-12-22T08:56:08.436Z,949.03
2022-12-22T08:57:08.379Z,949.03
2022-12-22T08:58:08.339Z,949.05
2022-12-22T08:59:08.335Z,949.08
2022-12-22T09:00:08.347Z,949.13
2022-12-22T09:01:08.415Z,949.19
2022-12-22T09:02:08.452Z,949.18
2022-12-22T09:03:08.362Z,949.21
2022-12-22T09:04:08.263Z,949.28
2022-12-22T09:05:08.261Z,949.27
2022-12-22T09:06:08.266Z,949.28
2022-12-22T09:07:08.279Z,949.33
2022-12-22T09:08:08.208Z,949.36
2022-12-22T09:09:08.226Z,949.39
2022-12-22T09:10:08.191Z,949.41
2022-12-22T09:11:08.172Z,949.37
2022-12-22T09:12:08.202Z,949.40
2022-12-22T09:13:08.159Z,949.38
2022-12-22T09:14:08.117Z,949.39
2022-12-22T09:15:08.126Z,949.41
2022-12-22T09:16:08.233Z,949.48
2022-12-22T09:17:08.125Z,949.49
2022-12-22T09:18:08.072Z,949.48
2022-12-22T09:19:08.065Z,949.53
2022-12-22T09:20:08.044Z,949.49
2022-12-22T09:21:08.054Z,949.52
2022-12-22T09:22:08.065Z,949.54
2022-12-22T09:23:08.023Z,949.54
2022-12-22T09:24:08.013Z,949.55
2022-12-22T09:25:07.985Z,949.54
2022-12-22T09:26:07.962Z,949.51
2022-12-22T09:27:08.023Z,949.50
2022-12-22T09:28:07.980Z,949.47
2022-12-22T09:29:07.972Z,949.44
2022-12-22T09:30:07.919Z,949.45
2022-12-22T09:31:07.907Z,949.43
2022-12-22T09:32:07.952Z,949.41
2022-12-22T09:33:07.892Z,949.40
2022-12-22T09:34:11.994Z,949.38
2022-12-22T09:35:07.894Z,949.37
2022-12-22T09:36:07.834Z,949.37
2022-12-22T09:37:07.837Z,949.38
2022-12-22T09:38:07.808Z,949.29
2022-12-22T09:39:07.826Z,949.24
2022-12-22T09:40:07.798Z,949.20
2022-12-22T09:41:07.775Z,949.16
2022-12-22T09:42:07.771Z,949.06
2022-12-22T09:43:07.764Z,949.01
2022-12-22T09:44:07.761Z,949.06
2022-12-22T09:45:09.936Z,949.14
2022-12-22T09:46:07.792Z,949.05
2022-12-22T09:47:07.693Z,949.05
2022-12-22T09:48:07.682Z,948.97
2022-12-22T09:49:07.688Z,948.96
2022-12-22T09:50:07.654Z,948.91
2022-12-22T09:51:07.635Z,948.87
2022-12-22T09:52:07.637Z,948.85
2022-12-22T09:53:07.652Z,948.82
2022-12-22T09:54:07.605Z,948.83
2022-12-22T09:55:07.584Z,948.85
2022-12-22T09:56:07.592Z,948.83
2022-12-22T09:57:07.578Z,948.84
2022-12-22T09:58:09.513Z,948.97
2022-12-22T09:59:07.529Z,948.97
2022-12-22T10:00:07.580Z,948.82
2022-12-22T10:01:07.552Z,948.91
2022-12-22T10:02:07.586Z,948.88
2022-12-22T10:03:07.547Z,948.89
2022-12-22T10:04:07.567Z,948.88
2022-12-22T10:05:07.449Z,948.85
2022-12-22T10:06:07.479Z,948.86
2022-12-22T10:07:07.424Z,948.92
2022-12-22T10:08:07.426Z,948.93
2022-12-22T10:09:27.565Z,948.91
2022-12-22T10:10:07.386Z,948.96
2022-12-22T10:11:07.369Z,948.99
2022-12-22T10:12:07.381Z,948.91
2022-12-22T10:13:07.343Z,948.92
2022-12-22T10:14:07.331Z,948.85
2022-12-22T10:15:07.319Z,948.85
2022-12-22T10:16:07.284Z,948.83
2022-12-22T10:17:07.339Z,948.83
2022-12-22T10:18:07.287Z,948.79
2022-12-22T10:19:07.264Z,948.80
2022-12-22T10:20:07.251Z,948.80
2022-12-22T10:21:07.235Z,948.74
2022-12-22T10:22:07.210Z,948.78
2022-12-22T10:23:07.252Z,948.82
2022-12-22T10:24:07.229Z,948.85
2022-12-22T10:25:07.197Z,948.82
2022-12-22T10:27:07.189Z,948.84
2022-12-22T10:28:07.131Z,948.77
2022-12-22T10:29:07.121Z,948.73
2022-12-22T10:30:07.146Z,948.75
2022-12-22T10:31:07.110Z,948.75
2022-12-22T10:32:07.195Z,948.83
2022-12-22T10:33:07.095Z,948.85
2022-12-22T10:34:07.090Z,948.81
2022-12-22T10:35:07.065Z,948.75
2022-12-22T10:36:07.040Z,948.70
2022-12-22T10:37:07.006Z,948.60
2022-12-22T10:38:07.024Z,948.57
2022-12-22T10:39:06.984Z,948.57
2022-12-22T10:40:07.006Z,948.63
2022-12-22T10:41:06.987Z,948.64
2022-12-22T10:42:06.948Z,948.68
2022-12-22T10:43:06.939Z,948.67
2022-12-22T10:44:06.929Z,948.67
2022-12-22T10:45:06.912Z,948.63
2022-12-22T10:46:06.988Z,948.57
2022-12-22T10:47:09.851Z,948.45
2022-12-22T10:48:06.889Z,948.46
2022-12-22T10:49:06.864Z,948.43
2022-12-22T10:50:06.844Z,948.43
2022-12-22T10:51:06.846Z,948.41
2022-12-22T10:52:06.851Z,948.38
2022-12-22T10:53:06.803Z,948.36
2022-12-22T10:54:06.788Z,948.36
2022-12-22T10:55:06.793Z,948.38
2022-12-22T10:56:06.776Z,948.34
2022-12-22T10:57:06.795Z,948.28
2022-12-22T10:58:06.743Z,948.27
2022-12-22T10:59:06.733Z,948.21
2022-12-22T11:00:06.755Z,948.15
2022-12-22T11:01:06.697Z,948.08
2022-12-22T11:02:06.899Z,948.04
2022-12-22T11:03:06.900Z,948.10
2022-12-22T11:04:06.756Z,948.15
2022-12-22T11:05:06.642Z,948.16
2022-12-22T11:06:06.698Z,948.14
2022-12-22T11:07:06.647Z,948.16
2022-12-22T11:08:06.611Z,948.19
2022-12-22T11:09:32.055Z,948.21
2022-12-22T11:10:06.606Z,948.24
2022-12-22T11:11:06.554Z,948.21
2022-12-22T11:12:06.573Z,948.22
2022-12-22T11:13:06.542Z,948.27
2022-12-22T11:14:06.529Z,948.35
2022-12-22T11:15:06.500Z,948.35
2022-12-22T11:16:06.498Z,948.29
2022-12-22T11:17:06.600Z,948.32
2022-12-22T11:18:06.495Z,948.31
2022-12-22T11:19:06.452Z,948.35
2022-12-22T11:20:06.468Z,948.42
2022-12-22T11:21:06.466Z,948.48
2022-12-22T11:22:06.427Z,948.47
2022-12-22T11:23:06.377Z,948.57
2022-12-22T11:24:06.390Z,948.54
2022-12-22T11:25:06.392Z,948.57
2022-12-22T11:26:06.408Z,948.59
2022-12-22T11:27:06.339Z,948.58
2022-12-22T11:28:06.348Z,948.62
2022-12-22T11:29:06.313Z,948.71
2022-12-22T11:30:06.323Z,948.79
2022-12-22T11:31:06.425Z,948.86
2022-12-22T11:32:06.286Z,949.01
2022-12-22T11:33:06.290Z,949.01
2022-12-22T11:34:06.277Z,949.03
2022-12-22T11:35:06.246Z,949.05
2022-12-22T11:36:06.224Z,949.07
2022-12-22T11:37:06.246Z,948.99
2022-12-22T11:38:06.215Z,948.92
2022-12-22T11:39:06.196Z,948.89
2022-12-22T11:40:06.201Z,948.86
2022-12-22T11:41:06.165Z,948.79
2022-12-22T11:42:06.154Z,948.71
2022-12-22T11:43:06.135Z,948.64
2022-12-22T11:44:06.130Z,948.61
2022-12-22T11:45:06.127Z,948.57
2022-12-22T11:46:06.184Z,948.53
2022-12-22T11:47:06.079Z,948.48
2022-12-22T11:48:06.062Z,948.49
2022-12-22T11:49:06.055Z,948.47
2022-12-22T11:50:59.709Z,948.42
2022-12-22T11:51:10.117Z,948.41
2022-12-22T11:52:06.032Z,948.43
2022-12-22T11:53:06.003Z,948.32
2022-12-22T11:54:10.884Z,948.24
2022-12-22T11:55:05.970Z,948.26
2022-12-22T11:56:06.005Z,948.41
2022-12-22T11:57:05.940Z,948.51
2022-12-22T11:58:05.943Z,948.58
2022-12-22T11:59:05.940Z,948.64
2022-12-22T12:00:05.950Z,948.54
2022-12-22T12:01:16.588Z,948.50
2022-12-22T12:02:05.932Z,948.48
2022-12-22T12:03:05.966Z,948.40
2022-12-22T12:04:05.869Z,948.38
2022-12-22T12:05:05.827Z,948.43
2022-12-22T12:06:05.830Z,948.58
2022-12-22T12:07:05.810Z,948.62
2022-12-22T12:08:05.837Z,948.62
2022-12-22T12:09:05.789Z,948.61
2022-12-22T12:10:05.781Z,948.58
2022-12-22T12:11:05.773Z,948.56
2022-12-22T12:12:05.738Z,948.55
2022-12-22T12:13:05.750Z,948.55
2022-12-22T12:14:05.779Z,948.57
2022-12-22T12:15:05.718Z,948.62
2022-12-22T12:16:05.742Z,948.63
2022-12-22T12:17:05.687Z,948.69
2022-12-22T12:18:05.681Z,948.60
2022-12-22T12:19:05.688Z,948.66
2022-12-22T12:20:05.658Z,948.67
2022-12-22T12:21:05.616Z,948.69
2022-12-22T12:22:05.617Z,948.75
2022-12-22T12:23:05.635Z,948.77
2022-12-22T12:24:05.585Z,948.84
2022-12-22T12:25:05.553Z,948.92
2022-12-22T12:26:05.555Z,948.89
2022-12-22T12:27:05.538Z,948.90
2022-12-22T12:28:05.553Z,948.84
2022-12-22T12:29:05.515Z,948.76